Terminal Aerodrome Forecast
Issued by NWS

Home | Current Version | Previous Version | Text Only | Print | Product List | Glossary On
Versions: 1 2 3 4 5 6 7 8 9 10 11 12 13 14 15 16 17 18 19 20 21
000
FTUS46 KSTO 180600 AAA
TAFRDD
TAF AMD
KRDD 180654Z 1807/1906 18006KT P6SM -RA SCT015 OVC025
      TEMPO 1807/1811 BKN015
     FM181200 VRB05KT 4SM BR VCSH OVC015
     FM181900 18006KT P6SM VCSH BKN050=

USA.gov is the U.S. government's official web portal to all federal, state and local government web resources and services.